Lake Wildwood, California
Current Conditions -  °F | °C
As of 3:20 AM on Saturday 20 Dec 2014 (Local Time) from KGOO Reporting Station
Overcast Overcast  
Wind Chill:   Ceiling: 100
Heat Index:   Visibility: 0.5mi
Dew Point:   Wind: 6mph
Humidity: 100%   Direction: 200°SSW
Pressure: 30.13"   Gusts: NA
Location:  39.1921°N, 121.19°W
Report Text: KGOO 201120Z AUTO 20005KT 1/2SM OVC001 07/07 A3013 RMK AO1
Loading
Personal Weather Stations






























Interactive Weather Map New forecast layout! Learn more

10-Day Weather Forecast

Advertisements
Track Severe Weather on mobile